sensor_id;sensor_type;location;lat;lon;timestamp;P1;durP1;ratioP1;P2;durP2;ratioP2
8885;SDS011;4479;51.162;13.906;2024-01-30T00:03:08;16.90;;;9.83;;
8885;SDS011;4479;51.162;13.906;2024-01-30T00:13:12;17.07;;;10.47;;
8885;SDS011;4479;51.162;13.906;2024-01-30T00:23:16;17.70;;;10.00;;
8885;SDS011;4479;51.162;13.906;2024-01-30T00:33:20;14.63;;;8.83;;
8885;SDS011;4479;51.162;13.906;2024-01-30T00:43:22;16.23;;;8.93;;
8885;SDS011;4479;51.162;13.906;2024-01-30T00:53:26;13.30;;;8.80;;
8885;SDS011;4479;51.162;13.906;2024-01-30T01:03:28;14.23;;;9.13;;
8885;SDS011;4479;51.162;13.906;2024-01-30T01:13:32;14.43;;;8.37;;
8885;SDS011;4479;51.162;13.906;2024-01-30T01:23:33;12.97;;;8.43;;
8885;SDS011;4479;51.162;13.906;2024-01-30T01:33:38;12.53;;;8.03;;
8885;SDS011;4479;51.162;13.906;2024-01-30T01:43:40;14.20;;;9.17;;
8885;SDS011;4479;51.162;13.906;2024-01-30T01:53:43;15.97;;;9.47;;
8885;SDS011;4479;51.162;13.906;2024-01-30T02:03:46;13.83;;;9.03;;
8885;SDS011;4479;51.162;13.906;2024-01-30T02:13:50;15.50;;;9.93;;
8885;SDS011;4479;51.162;13.906;2024-01-30T02:23:53;12.73;;;8.53;;
8885;SDS011;4479;51.162;13.906;2024-01-30T02:33:56;14.03;;;8.83;;
8885;SDS011;4479;51.162;13.906;2024-01-30T02:44:00;16.73;;;10.27;;
8885;SDS011;4479;51.162;13.906;2024-01-30T02:54:03;17.77;;;10.37;;
8885;SDS011;4479;51.162;13.906;2024-01-30T03:04:06;14.63;;;9.10;;
8885;SDS011;4479;51.162;13.906;2024-01-30T03:14:08;13.67;;;8.47;;
8885;SDS011;4479;51.162;13.906;2024-01-30T03:24:12;15.43;;;9.47;;
8885;SDS011;4479;51.162;13.906;2024-01-30T03:34:14;17.17;;;9.83;;
8885;SDS011;4479;51.162;13.906;2024-01-30T03:44:18;14.00;;;9.27;;
8885;SDS011;4479;51.162;13.906;2024-01-30T03:54:20;16.73;;;9.03;;
8885;SDS011;4479;51.162;13.906;2024-01-30T04:04:24;12.40;;;8.20;;
8885;SDS011;4479;51.162;13.906;2024-01-30T04:14:26;13.00;;;8.23;;
8885;SDS011;4479;51.162;13.906;2024-01-30T04:24:30;17.00;;;10.10;;
8885;SDS011;4479;51.162;13.906;2024-01-30T04:34:32;18.27;;;10.10;;
8885;SDS011;4479;51.162;13.906;2024-01-30T04:44:35;13.00;;;7.60;;
8885;SDS011;4479;51.162;13.906;2024-01-30T04:54:37;13.27;;;8.60;;
8885;SDS011;4479;51.162;13.906;2024-01-30T05:04:41;13.80;;;8.80;;
8885;SDS011;4479;51.162;13.906;2024-01-30T05:14:43;13.43;;;8.07;;
8885;SDS011;4479;51.162;13.906;2024-01-30T05:24:47;15.20;;;8.70;;
8885;SDS011;4479;51.162;13.906;2024-01-30T05:34:49;12.10;;;8.40;;
8885;SDS011;4479;51.162;13.906;2024-01-30T05:44:53;13.60;;;8.80;;
8885;SDS011;4479;51.162;13.906;2024-01-30T05:54:55;15.83;;;9.90;;
8885;SDS011;4479;51.162;13.906;2024-01-30T06:04:58;15.30;;;8.77;;
8885;SDS011;4479;51.162;13.906;2024-01-30T06:15:00;13.00;;;8.63;;
8885;SDS011;4479;51.162;13.906;2024-01-30T06:25:04;14.67;;;9.47;;
8885;SDS011;4479;51.162;13.906;2024-01-30T06:35:07;18.73;;;10.40;;
8885;SDS011;4479;51.162;13.906;2024-01-30T06:45:11;13.37;;;9.20;;
8885;SDS011;4479;51.162;13.906;2024-01-30T06:55:15;14.50;;;9.57;;
8885;SDS011;4479;51.162;13.906;2024-01-30T07:05:18;15.03;;;8.93;;
8885;SDS011;4479;51.162;13.906;2024-01-30T07:15:22;14.77;;;9.40;;
8885;SDS011;4479;51.162;13.906;2024-01-30T07:25:25;17.67;;;9.67;;
8885;SDS011;4479;51.162;13.906;2024-01-30T07:35:29;17.83;;;10.77;;
8885;SDS011;4479;51.162;13.906;2024-01-30T07:45:32;15.43;;;9.90;;
8885;SDS011;4479;51.162;13.906;2024-01-30T07:55:34;14.60;;;9.27;;
8885;SDS011;4479;51.162;13.906;2024-01-30T08:05:38;15.43;;;10.17;;
8885;SDS011;4479;51.162;13.906;2024-01-30T08:15:40;16.73;;;10.03;;
8885;SDS011;4479;51.162;13.906;2024-01-30T08:25:43;15.40;;;10.27;;
8885;SDS011;4479;51.162;13.906;2024-01-30T08:35:45;17.43;;;11.43;;
8885;SDS011;4479;51.162;13.906;2024-01-30T08:45:49;18.50;;;11.07;;
8885;SDS011;4479;51.162;13.906;2024-01-30T08:55:51;20.33;;;11.47;;
8885;SDS011;4479;51.162;13.906;2024-01-30T09:05:55;17.27;;;10.90;;
8885;SDS011;4479;51.162;13.906;2024-01-30T09:15:56;18.33;;;11.93;;
8885;SDS011;4479;51.162;13.906;2024-01-30T09:26:00;17.07;;;10.63;;
8885;SDS011;4479;51.162;13.906;2024-01-30T09:36:02;14.10;;;9.20;;
8885;SDS011;4479;51.162;13.906;2024-01-30T09:46:08;14.40;;;9.53;;
8885;SDS011;4479;51.162;13.906;2024-01-30T09:56:13;14.93;;;10.30;;
8885;SDS011;4479;51.162;13.906;2024-01-30T10:06:18;16.07;;;10.40;;
8885;SDS011;4479;51.162;13.906;2024-01-30T10:16:21;16.17;;;11.00;;
8885;SDS011;4479;51.162;13.906;2024-01-30T10:26:25;17.03;;;11.50;;
8885;SDS011;4479;51.162;13.906;2024-01-30T10:36:29;17.87;;;10.33;;
8885;SDS011;4479;51.162;13.906;2024-01-30T10:46:42;16.67;;;10.73;;
8885;SDS011;4479;51.162;13.906;2024-01-30T10:56:52;14.70;;;10.40;;
8885;SDS011;4479;51.162;13.906;2024-01-30T11:06:56;15.00;;;10.30;;
8885;SDS011;4479;51.162;13.906;2024-01-30T11:16:58;15.83;;;10.73;;
8885;SDS011;4479;51.162;13.906;2024-01-30T11:27:02;16.53;;;11.53;;
8885;SDS011;4479;51.162;13.906;2024-01-30T11:37:09;17.17;;;11.40;;
8885;SDS011;4479;51.162;13.906;2024-01-30T11:47:16;16.03;;;11.77;;
8885;SDS011;4479;51.162;13.906;2024-01-30T11:57:18;20.40;;;12.23;;
8885;SDS011;4479;51.162;13.906;2024-01-30T12:07:21;15.73;;;10.73;;
8885;SDS011;4479;51.162;13.906;2024-01-30T12:17:24;14.53;;;10.10;;
8885;SDS011;4479;51.162;13.906;2024-01-30T12:27:31;17.57;;;11.63;;
8885;SDS011;4479;51.162;13.906;2024-01-30T12:37:33;17.40;;;12.07;;
8885;SDS011;4479;51.162;13.906;2024-01-30T12:47:37;18.23;;;12.20;;
8885;SDS011;4479;51.162;13.906;2024-01-30T12:57:39;16.90;;;12.30;;
8885;SDS011;4479;51.162;13.906;2024-01-30T13:07:43;19.27;;;12.60;;
8885;SDS011;4479;51.162;13.906;2024-01-30T13:17:45;18.77;;;11.93;;
8885;SDS011;4479;51.162;13.906;2024-01-30T13:27:49;18.03;;;11.60;;
8885;SDS011;4479;51.162;13.906;2024-01-30T13:37:51;20.17;;;12.20;;
8885;SDS011;4479;51.162;13.906;2024-01-30T13:47:55;18.80;;;11.60;;
8885;SDS011;4479;51.162;13.906;2024-01-30T13:57:57;19.60;;;12.40;;
8885;SDS011;4479;51.162;13.906;2024-01-30T14:08:03;19.07;;;12.47;;
8885;SDS011;4479;51.162;13.906;2024-01-30T14:18:05;17.87;;;11.10;;
8885;SDS011;4479;51.162;13.906;2024-01-30T14:28:10;18.27;;;11.50;;
8885;SDS011;4479;51.162;13.906;2024-01-30T14:38:12;18.17;;;11.33;;
8885;SDS011;4479;51.162;13.906;2024-01-30T14:48:16;17.40;;;11.10;;
8885;SDS011;4479;51.162;13.906;2024-01-30T14:58:18;19.83;;;11.87;;
8885;SDS011;4479;51.162;13.906;2024-01-30T15:08:22;14.60;;;9.73;;
8885;SDS011;4479;51.162;13.906;2024-01-30T15:18:23;17.47;;;10.83;;
8885;SDS011;4479;51.162;13.906;2024-01-30T15:28:34;17.00;;;9.90;;
8885;SDS011;4479;51.162;13.906;2024-01-30T15:38:37;19.07;;;10.97;;
8885;SDS011;4479;51.162;13.906;2024-01-30T15:48:41;19.33;;;10.80;;
8885;SDS011;4479;51.162;13.906;2024-01-30T15:58:43;18.90;;;11.23;;
8885;SDS011;4479;51.162;13.906;2024-01-30T16:08:50;18.33;;;10.47;;
8885;SDS011;4479;51.162;13.906;2024-01-30T16:18:52;18.10;;;11.63;;
8885;SDS011;4479;51.162;13.906;2024-01-30T16:28:56;16.57;;;10.50;;
8885;SDS011;4479;51.162;13.906;2024-01-30T16:38:58;20.67;;;11.83;;
8885;SDS011;4479;51.162;13.906;2024-01-30T16:49:04;18.03;;;11.30;;
8885;SDS011;4479;51.162;13.906;2024-01-30T16:59:06;18.97;;;12.33;;
8885;SDS011;4479;51.162;13.906;2024-01-30T17:09:11;23.33;;;13.10;;
8885;SDS011;4479;51.162;13.906;2024-01-30T17:19:15;21.27;;;12.93;;
8885;SDS011;4479;51.162;13.906;2024-01-30T17:29:18;19.83;;;12.03;;
8885;SDS011;4479;51.162;13.906;2024-01-30T17:39:20;20.57;;;11.80;;
8885;SDS011;4479;51.162;13.906;2024-01-30T17:49:24;22.50;;;13.03;;
8885;SDS011;4479;51.162;13.906;2024-01-30T17:59:29;18.20;;;11.03;;
8885;SDS011;4479;51.162;13.906;2024-01-30T18:09:33;18.47;;;10.57;;
8885;SDS011;4479;51.162;13.906;2024-01-30T18:19:35;17.80;;;10.90;;
8885;SDS011;4479;51.162;13.906;2024-01-30T18:29:39;19.77;;;11.67;;
8885;SDS011;4479;51.162;13.906;2024-01-30T18:39:41;23.17;;;11.87;;
8885;SDS011;4479;51.162;13.906;2024-01-30T18:49:47;19.60;;;11.67;;
8885;SDS011;4479;51.162;13.906;2024-01-30T18:59:51;19.07;;;11.13;;
8885;SDS011;4479;51.162;13.906;2024-01-30T19:09:54;18.40;;;10.80;;
8885;SDS011;4479;51.162;13.906;2024-01-30T19:19:56;18.97;;;11.03;;
8885;SDS011;4479;51.162;13.906;2024-01-30T19:30:00;19.07;;;10.50;;
8885;SDS011;4479;51.162;13.906;2024-01-30T19:40:02;19.63;;;11.37;;
8885;SDS011;4479;51.162;13.906;2024-01-30T19:50:08;20.63;;;10.83;;
8885;SDS011;4479;51.162;13.906;2024-01-30T20:00:10;18.33;;;10.50;;
8885;SDS011;4479;51.162;13.906;2024-01-30T20:10:15;18.00;;;10.90;;
8885;SDS011;4479;51.162;13.906;2024-01-30T20:20:17;20.60;;;11.43;;
8885;SDS011;4479;51.162;13.906;2024-01-30T20:30:21;20.37;;;11.77;;
8885;SDS011;4479;51.162;13.906;2024-01-30T20:40:23;20.50;;;12.03;;
8885;SDS011;4479;51.162;13.906;2024-01-30T20:50:27;22.47;;;12.10;;
8885;SDS011;4479;51.162;13.906;2024-01-30T21:00:29;19.77;;;11.07;;
8885;SDS011;4479;51.162;13.906;2024-01-30T21:10:32;22.70;;;12.27;;
8885;SDS011;4479;51.162;13.906;2024-01-30T21:20:35;21.03;;;11.63;;
8885;SDS011;4479;51.162;13.906;2024-01-30T21:30:38;18.87;;;11.13;;
8885;SDS011;4479;51.162;13.906;2024-01-30T21:40:41;18.37;;;10.70;;
8885;SDS011;4479;51.162;13.906;2024-01-30T21:50:45;20.93;;;11.10;;
8885;SDS011;4479;51.162;13.906;2024-01-30T22:00:47;19.40;;;10.77;;
8885;SDS011;4479;51.162;13.906;2024-01-30T22:10:51;18.33;;;11.00;;
8885;SDS011;4479;51.162;13.906;2024-01-30T22:20:53;18.80;;;10.50;;
8885;SDS011;4479;51.162;13.906;2024-01-30T22:30:56;20.03;;;10.43;;
8885;SDS011;4479;51.162;13.906;2024-01-30T22:40:59;20.77;;;11.23;;
8885;SDS011;4479;51.162;13.906;2024-01-30T22:51:03;18.13;;;10.83;;
8885;SDS011;4479;51.162;13.906;2024-01-30T23:01:05;20.23;;;10.83;;
8885;SDS011;4479;51.162;13.906;2024-01-30T23:11:11;21.67;;;11.83;;
8885;SDS011;4479;51.162;13.906;2024-01-30T23:21:13;20.33;;;11.43;;
8885;SDS011;4479;51.162;13.906;2024-01-30T23:31:17;21.63;;;10.93;;
8885;SDS011;4479;51.162;13.906;2024-01-30T23:41:19;19.20;;;11.27;;
8885;SDS011;4479;51.162;13.906;2024-01-30T23:51:22;17.97;;;10.67;;
